sensor_id;sensor_type;location;lat;lon;timestamp;pressure;altitude;pressure_sealevel;temperature;humidity
818;BME280;391;51.052;6.954;2023-05-25T00:01:34;101759.06;;;13.64;65.45
818;BME280;391;51.052;6.954;2023-05-25T00:03:39;101767.06;;;13.42;66.02
818;BME280;391;51.052;6.954;2023-05-25T00:05:43;101769.00;;;13.22;66.28
818;BME280;391;51.052;6.954;2023-05-25T00:07:46;101774.50;;;13.06;66.79
818;BME280;391;51.052;6.954;2023-05-25T00:09:50;101770.16;;;13.06;66.93
818;BME280;391;51.052;6.954;2023-05-25T00:11:53;101769.63;;;13.15;66.85
818;BME280;391;51.052;6.954;2023-05-25T00:13:57;101781.16;;;13.20;66.90
818;BME280;391;51.052;6.954;2023-05-25T00:16:00;101781.28;;;13.23;66.89
818;BME280;391;51.052;6.954;2023-05-25T00:18:04;101777.06;;;13.28;66.83
818;BME280;391;51.052;6.954;2023-05-25T00:20:09;101778.78;;;13.27;66.73
818;BME280;391;51.052;6.954;2023-05-25T00:22:15;101769.63;;;13.15;66.81
818;BME280;391;51.052;6.954;2023-05-25T00:24:18;101774.50;;;13.06;67.03
818;BME280;391;51.052;6.954;2023-05-25T00:26:21;101771.47;;;12.94;67.38
818;BME280;391;51.052;6.954;2023-05-25T00:28:25;101774.03;;;12.92;67.45
818;BME280;391;51.052;6.954;2023-05-25T00:30:28;101763.22;;;12.83;67.74
818;BME280;391;51.052;6.954;2023-05-25T00:32:33;101771.47;;;12.94;67.69
818;BME280;391;51.052;6.954;2023-05-25T00:34:37;101776.97;;;13.01;67.77
818;BME280;391;51.052;6.954;2023-05-25T00:36:42;101689.91;;;12.58;67.78
818;BME280;391;51.052;6.954;2023-05-25T00:38:49;101774.84;;;13.15;67.73
818;BME280;391;51.052;6.954;2023-05-25T00:40:54;101775.03;;;13.19;67.67
818;BME280;391;51.052;6.954;2023-05-25T00:42:58;101777.81;;;13.24;67.44
818;BME280;391;51.052;6.954;2023-05-25T00:45:02;101783.00;;;13.22;67.42
818;BME280;391;51.052;6.954;2023-05-25T00:47:05;101780.09;;;13.15;67.44
818;BME280;391;51.052;6.954;2023-05-25T00:49:10;101781.88;;;13.16;67.52
818;BME280;391;51.052;6.954;2023-05-25T00:51:15;101773.91;;;13.13;67.55
818;BME280;391;51.052;6.954;2023-05-25T00:53:21;101772.25;;;13.15;67.66
818;BME280;391;51.052;6.954;2023-05-25T00:55:26;101737.31;;;12.91;67.52
818;BME280;391;51.052;6.954;2023-05-25T00:57:32;101771.38;;;13.14;67.63
818;BME280;391;51.052;6.954;2023-05-25T00:59:43;101773.41;;;12.99;67.62
818;BME280;391;51.052;6.954;2023-05-25T01:01:48;101760.88;;;12.67;68.08
818;BME280;391;51.052;6.954;2023-05-25T01:03:56;101770.31;;;12.40;68.58
818;BME280;391;51.052;6.954;2023-05-25T01:06:01;101752.69;;;12.12;69.09
818;BME280;391;51.052;6.954;2023-05-25T01:08:07;101769.50;;;12.18;69.34
818;BME280;391;51.052;6.954;2023-05-25T01:10:13;101769.78;;;12.26;69.79
818;BME280;391;51.052;6.954;2023-05-25T01:12:18;101625.09;;;11.57;69.42
818;BME280;391;51.052;6.954;2023-05-25T01:14:22;101721.78;;;12.24;69.28
818;BME280;391;51.052;6.954;2023-05-25T01:16:26;101767.44;;;12.56;68.87
818;BME280;391;51.052;6.954;2023-05-25T01:18:30;101771.91;;;12.58;68.88
818;BME280;391;51.052;6.954;2023-05-25T01:20:34;101770.22;;;12.60;68.85
818;BME280;391;51.052;6.954;2023-05-25T01:22:44;101770.22;;;12.60;69.08
818;BME280;391;51.052;6.954;2023-05-25T01:24:52;101775.63;;;12.65;68.85
818;BME280;391;51.052;6.954;2023-05-25T01:27:02;101761.44;;;12.58;68.84
818;BME280;391;51.052;6.954;2023-05-25T01:29:12;101775.81;;;12.69;68.98
818;BME280;391;51.052;6.954;2023-05-25T01:31:18;101776.53;;;12.65;68.39
818;BME280;391;51.052;6.954;2023-05-25T01:33:23;101776.34;;;12.61;68.40
818;BME280;391;51.052;6.954;2023-05-25T01:35:27;101769.47;;;12.63;68.67
818;BME280;391;51.052;6.954;2023-05-25T01:37:31;101770.38;;;12.63;68.72
818;BME280;391;51.052;6.954;2023-05-25T01:39:40;101768.81;;;12.70;68.60
818;BME280;391;51.052;6.954;2023-05-25T01:41:43;101705.59;;;12.34;68.18
818;BME280;391;51.052;6.954;2023-05-25T01:43:47;101779.47;;;12.74;68.22
818;BME280;391;51.052;6.954;2023-05-25T01:45:55;101775.97;;;12.74;68.00
818;BME280;391;51.052;6.954;2023-05-25T01:48:05;101784.31;;;12.64;68.05
818;BME280;391;51.052;6.954;2023-05-25T01:50:18;101785.78;;;12.34;67.99
818;BME280;391;51.052;6.954;2023-05-25T01:52:26;101710.31;;;11.76;68.90
818;BME280;391;51.052;6.954;2023-05-25T01:54:35;101781.84;;;12.23;68.94
818;BME280;391;51.052;6.954;2023-05-25T01:56:44;101779.53;;;12.30;68.99
818;BME280;391;51.052;6.954;2023-05-25T01:58:50;101762.94;;;12.30;68.95
818;BME280;391;51.052;6.954;2023-05-25T02:00:54;101775.00;;;12.26;68.58
818;BME280;391;51.052;6.954;2023-05-25T02:02:59;101775.31;;;12.11;68.93
818;BME280;391;51.052;6.954;2023-05-25T02:05:04;101776.00;;;11.85;69.08
818;BME280;391;51.052;6.954;2023-05-25T02:07:07;101773.41;;;11.64;69.63
818;BME280;391;51.052;6.954;2023-05-25T02:09:11;101770.84;;;11.45;69.69
818;BME280;391;51.052;6.954;2023-05-25T02:11:15;101769.63;;;11.37;70.16
818;BME280;391;51.052;6.954;2023-05-25T02:13:21;101763.75;;;11.43;70.77
818;BME280;391;51.052;6.954;2023-05-25T02:15:29;101762.28;;;11.49;70.71
818;BME280;391;51.052;6.954;2023-05-25T02:17:33;101768.91;;;11.62;70.48
818;BME280;391;51.052;6.954;2023-05-25T02:19:39;101764.94;;;11.70;70.36
818;BME280;391;51.052;6.954;2023-05-25T02:21:42;101767.09;;;11.80;70.38
818;BME280;391;51.052;6.954;2023-05-25T02:23:46;101764.72;;;11.86;70.33
818;BME280;391;51.052;6.954;2023-05-25T02:25:50;101732.66;;;11.69;70.03
818;BME280;391;51.052;6.954;2023-05-25T02:27:53;101764.09;;;11.92;70.04
818;BME280;391;51.052;6.954;2023-05-25T02:29:58;101761.47;;;11.92;69.98
818;BME280;391;51.052;6.954;2023-05-25T02:32:04;101760.44;;;11.88;69.88
818;BME280;391;51.052;6.954;2023-05-25T02:34:08;101768.16;;;11.85;70.23
818;BME280;391;51.052;6.954;2023-05-25T02:36:12;101758.66;;;11.87;70.18
818;BME280;391;51.052;6.954;2023-05-25T02:38:16;101761.47;;;11.92;70.07
818;BME280;391;51.052;6.954;2023-05-25T02:40:19;101757.19;;;11.94;69.82
818;BME280;391;51.052;6.954;2023-05-25T02:42:23;101756.34;;;11.95;69.74
818;BME280;391;51.052;6.954;2023-05-25T02:44:26;101769.06;;;11.86;69.62
818;BME280;391;51.052;6.954;2023-05-25T02:46:31;101765.31;;;11.79;70.08
818;BME280;391;51.052;6.954;2023-05-25T02:48:35;101765.50;;;11.84;69.91
818;BME280;391;51.052;6.954;2023-05-25T02:50:39;101769.19;;;11.89;70.18
818;BME280;391;51.052;6.954;2023-05-25T02:52:47;101759.38;;;11.83;70.09
818;BME280;391;51.052;6.954;2023-05-25T02:54:51;101765.47;;;11.63;70.30
818;BME280;391;51.052;6.954;2023-05-25T02:57:02;101769.59;;;11.36;70.81
818;BME280;391;51.052;6.954;2023-05-25T02:59:07;101772.25;;;11.17;70.72
818;BME280;391;51.052;6.954;2023-05-25T03:01:10;101775.78;;;11.19;70.73
818;BME280;391;51.052;6.954;2023-05-25T03:03:28;101777.75;;;11.24;71.05
818;BME280;391;51.052;6.954;2023-05-25T03:05:32;101773.53;;;11.26;71.11
818;BME280;391;51.052;6.954;2023-05-25T03:07:36;101770.91;;;11.26;70.72
818;BME280;391;51.052;6.954;2023-05-25T03:09:40;101779.56;;;11.25;70.77
818;BME280;391;51.052;6.954;2023-05-25T03:11:43;101786.28;;;11.20;71.40
818;BME280;391;51.052;6.954;2023-05-25T03:13:50;101786.50;;;11.25;71.42
818;BME280;391;51.052;6.954;2023-05-25T03:15:56;101783.44;;;11.35;72.03
818;BME280;391;51.052;6.954;2023-05-25T03:17:59;101778.69;;;11.45;71.71
818;BME280;391;51.052;6.954;2023-05-25T03:20:10;101780.66;;;11.51;71.98
818;BME280;391;51.052;6.954;2023-05-25T03:22:18;101779.19;;;11.37;72.53
818;BME280;391;51.052;6.954;2023-05-25T03:24:21;101783.97;;;11.26;72.41
818;BME280;391;51.052;6.954;2023-05-25T03:26:25;101800.94;;;11.17;72.31
818;BME280;391;51.052;6.954;2023-05-25T03:28:29;101783.53;;;11.17;72.58
818;BME280;391;51.052;6.954;2023-05-25T03:30:32;101796.28;;;11.30;72.59
818;BME280;391;51.052;6.954;2023-05-25T03:32:37;101800.19;;;11.40;72.04
818;BME280;391;51.052;6.954;2023-05-25T03:34:40;101802.31;;;11.48;72.47
818;BME280;391;51.052;6.954;2023-05-25T03:36:49;101792.31;;;11.59;72.34
818;BME280;391;51.052;6.954;2023-05-25T03:38:55;101795.16;;;11.65;72.64
818;BME280;391;51.052;6.954;2023-05-25T03:40:58;101739.88;;;11.34;72.53
818;BME280;391;51.052;6.954;2023-05-25T03:43:02;101792.75;;;11.69;72.40
818;BME280;391;51.052;6.954;2023-05-25T03:45:06;101801.78;;;11.76;72.71
818;BME280;391;51.052;6.954;2023-05-25T03:47:13;101755.41;;;11.31;72.45
818;BME280;391;51.052;6.954;2023-05-25T03:49:17;101806.13;;;11.56;72.88
818;BME280;391;51.052;6.954;2023-05-25T03:51:20;101793.50;;;11.46;72.46
818;BME280;391;51.052;6.954;2023-05-25T03:53:25;101804.66;;;11.63;72.72
818;BME280;391;51.052;6.954;2023-05-25T03:55:28;101788.50;;;11.51;72.49
818;BME280;391;51.052;6.954;2023-05-25T03:57:35;101823.31;;;11.71;72.50
818;BME280;391;51.052;6.954;2023-05-25T03:59:38;101830.25;;;11.70;72.43
818;BME280;391;51.052;6.954;2023-05-25T04:01:41;101829.41;;;11.71;72.79
818;BME280;391;51.052;6.954;2023-05-25T04:03:45;101818.25;;;11.75;72.89
818;BME280;391;51.052;6.954;2023-05-25T04:05:49;101816.75;;;11.80;72.92
818;BME280;391;51.052;6.954;2023-05-25T04:07:52;101824.75;;;11.85;72.93
818;BME280;391;51.052;6.954;2023-05-25T04:09:57;101825.63;;;11.84;73.22
818;BME280;391;51.052;6.954;2023-05-25T04:12:01;101826.69;;;11.89;73.14
818;BME280;391;51.052;6.954;2023-05-25T04:14:04;101833.75;;;11.91;73.14
818;BME280;391;51.052;6.954;2023-05-25T04:16:12;101838.16;;;11.92;73.21
818;BME280;391;51.052;6.954;2023-05-25T04:18:17;101840.94;;;11.97;73.14
818;BME280;391;51.052;6.954;2023-05-25T04:20:22;101834.72;;;11.93;73.48
818;BME280;391;51.052;6.954;2023-05-25T04:22:26;101837.38;;;11.95;73.16
818;BME280;391;51.052;6.954;2023-05-25T04:24:29;101842.69;;;11.96;73.49
818;BME280;391;51.052;6.954;2023-05-25T04:26:35;101842.56;;;11.93;73.43
818;BME280;391;51.052;6.954;2023-05-25T04:28:40;101844.44;;;11.97;73.63
818;BME280;391;51.052;6.954;2023-05-25T04:31:07;101800.31;;;11.43;73.58
818;BME280;391;51.052;6.954;2023-05-25T04:33:29;101842.69;;;11.56;73.84
818;BME280;391;51.052;6.954;2023-05-25T04:35:36;101848.34;;;11.46;74.26
818;BME280;391;51.052;6.954;2023-05-25T04:37:39;101858.13;;;11.50;74.45
818;BME280;391;51.052;6.954;2023-05-25T04:39:43;101864.03;;;11.46;74.49
818;BME280;391;51.052;6.954;2023-05-25T04:41:48;101859.78;;;11.48;74.74
818;BME280;391;51.052;6.954;2023-05-25T04:43:52;101854.81;;;11.54;74.90
818;BME280;391;51.052;6.954;2023-05-25T04:46:14;101859.03;;;11.72;74.95
818;BME280;391;51.052;6.954;2023-05-25T04:48:18;101845.09;;;11.71;74.18
818;BME280;391;51.052;6.954;2023-05-25T04:50:22;101862.00;;;11.79;74.55
818;BME280;391;51.052;6.954;2023-05-25T04:52:26;101853.75;;;11.91;74.58
818;BME280;391;51.052;6.954;2023-05-25T04:54:30;101861.28;;;12.04;74.58
818;BME280;391;51.052;6.954;2023-05-25T04:56:36;101860.50;;;12.06;74.25
818;BME280;391;51.052;6.954;2023-05-25T04:58:40;101863.19;;;12.08;74.49
818;BME280;391;51.052;6.954;2023-05-25T05:00:44;101824.06;;;11.89;74.44
818;BME280;391;51.052;6.954;2023-05-25T05:02:48;101859.44;;;12.01;74.61
818;BME280;391;51.052;6.954;2023-05-25T05:04:52;101861.97;;;12.00;74.57
818;BME280;391;51.052;6.954;2023-05-25T05:06:56;101861.81;;;11.95;74.87
818;BME280;391;51.052;6.954;2023-05-25T05:09:03;101832.03;;;11.71;74.84
818;BME280;391;51.052;6.954;2023-05-25T05:11:07;101867.16;;;11.98;75.24
818;BME280;391;51.052;6.954;2023-05-25T05:13:11;101889.84;;;11.99;75.28
818;BME280;391;51.052;6.954;2023-05-25T05:15:17;101879.53;;;12.02;75.17
818;BME280;391;51.052;6.954;2023-05-25T05:17:23;101866.50;;;12.04;75.38
818;BME280;391;51.052;6.954;2023-05-25T05:19:27;101873.97;;;12.15;75.31
818;BME280;391;51.052;6.954;2023-05-25T05:21:31;101876.72;;;12.18;75.52
818;BME280;391;51.052;6.954;2023-05-25T05:23:36;101841.97;;;12.00;75.20
818;BME280;391;51.052;6.954;2023-05-25T05:25:39;101881.94;;;12.18;75.51
818;BME280;391;51.052;6.954;2023-05-25T05:27:43;101890.72;;;12.20;75.83
818;BME280;391;51.052;6.954;2023-05-25T05:29:52;101892.56;;;12.23;75.88
818;BME280;391;51.052;6.954;2023-05-25T05:31:57;101894.28;;;12.23;75.92
818;BME280;391;51.052;6.954;2023-05-25T05:34:01;101891.09;;;12.30;76.16
818;BME280;391;51.052;6.954;2023-05-25T05:36:06;101901.22;;;12.43;76.06
818;BME280;391;51.052;6.954;2023-05-25T05:38:11;101902.47;;;12.52;76.00
818;BME280;391;51.052;6.954;2023-05-25T05:40:14;101901.88;;;12.59;76.13
818;BME280;391;51.052;6.954;2023-05-25T05:42:18;101897.84;;;12.67;76.03
818;BME280;391;51.052;6.954;2023-05-25T05:44:21;101892.91;;;12.75;75.87
818;BME280;391;51.052;6.954;2023-05-25T05:46:30;101902.59;;;12.78;75.61
818;BME280;391;51.052;6.954;2023-05-25T05:48:36;101904.53;;;12.83;75.72
818;BME280;391;51.052;6.954;2023-05-25T05:50:39;101898.84;;;12.93;75.45
818;BME280;391;51.052;6.954;2023-05-25T05:52:45;101890.31;;;12.99;75.17
818;BME280;391;51.052;6.954;2023-05-25T05:54:49;101901.16;;;13.08;75.00
818;BME280;391;51.052;6.954;2023-05-25T05:56:52;101773.72;;;12.37;75.00
818;BME280;391;51.052;6.954;2023-05-25T05:58:56;101904.84;;;13.13;74.60
818;BME280;391;51.052;6.954;2023-05-25T06:01:00;101913.72;;;13.16;74.42
818;BME280;391;51.052;6.954;2023-05-25T06:03:04;101909.53;;;13.21;74.45
818;BME280;391;51.052;6.954;2023-05-25T06:05:10;101906.97;;;13.23;74.06
818;BME280;391;51.052;6.954;2023-05-25T06:07:16;101904.84;;;13.13;74.05
818;BME280;391;51.052;6.954;2023-05-25T06:09:20;101910.28;;;13.17;74.03
818;BME280;391;51.052;6.954;2023-05-25T06:11:23;101906.97;;;13.23;73.97
818;BME280;391;51.052;6.954;2023-05-25T06:13:27;101900.84;;;13.22;73.81
818;BME280;391;51.052;6.954;2023-05-25T06:15:30;101891.69;;;13.11;73.60
818;BME280;391;51.052;6.954;2023-05-25T06:17:35;101921.19;;;13.30;73.38
818;BME280;391;51.052;6.954;2023-05-25T06:19:40;101919.41;;;13.29;73.58
818;BME280;391;51.052;6.954;2023-05-25T06:21:45;101927.47;;;13.35;73.39
818;BME280;391;51.052;6.954;2023-05-25T06:23:49;101920.75;;;13.41;73.44
818;BME280;391;51.052;6.954;2023-05-25T06:25:53;101909.53;;;13.45;73.33
818;BME280;391;51.052;6.954;2023-05-25T06:27:56;101919.44;;;13.54;72.84
818;BME280;391;51.052;6.954;2023-05-25T06:30:00;101928.31;;;13.57;73.06
818;BME280;391;51.052;6.954;2023-05-25T06:32:04;101924.06;;;13.61;72.95
818;BME280;391;51.052;6.954;2023-05-25T06:34:08;101925.22;;;13.69;72.96
818;BME280;391;51.052;6.954;2023-05-25T06:36:12;101921.28;;;13.82;72.85
818;BME280;391;51.052;6.954;2023-05-25T06:38:19;101939.78;;;13.85;72.50
818;BME280;391;51.052;6.954;2023-05-25T06:40:23;101922.59;;;13.69;72.56
818;BME280;391;51.052;6.954;2023-05-25T06:42:27;101929.75;;;13.73;72.62
818;BME280;391;51.052;6.954;2023-05-25T06:44:31;101942.63;;;13.91;72.70
818;BME280;391;51.052;6.954;2023-05-25T06:46:42;101940.19;;;14.22;74.08
818;BME280;391;51.052;6.954;2023-05-25T06:48:46;101922.50;;;14.42;74.47
818;BME280;391;51.052;6.954;2023-05-25T06:50:49;101937.31;;;14.66;73.52
818;BME280;391;51.052;6.954;2023-05-25T06:52:55;101940.03;;;14.69;72.39
818;BME280;391;51.052;6.954;2023-05-25T06:55:03;101931.84;;;14.60;72.30
818;BME280;391;51.052;6.954;2023-05-25T06:57:07;101946.72;;;14.60;71.85
818;BME280;391;51.052;6.954;2023-05-25T06:59:10;101951.88;;;14.57;71.67
818;BME280;391;51.052;6.954;2023-05-25T07:01:14;101954.53;;;14.58;71.39
818;BME280;391;51.052;6.954;2023-05-25T07:03:18;101932.41;;;14.50;71.42
818;BME280;391;51.052;6.954;2023-05-25T07:05:22;101951.31;;;14.67;71.12
818;BME280;391;51.052;6.954;2023-05-25T07:07:25;101940.75;;;14.65;70.74
818;BME280;391;51.052;6.954;2023-05-25T07:09:30;101949.72;;;14.72;70.57
818;BME280;391;51.052;6.954;2023-05-25T07:11:35;101954.22;;;14.76;70.35
818;BME280;391;51.052;6.954;2023-05-25T07:13:39;101955.22;;;14.79;69.98
818;BME280;391;51.052;6.954;2023-05-25T07:15:42;101957.03;;;14.82;69.83
818;BME280;391;51.052;6.954;2023-05-25T07:17:46;101954.59;;;14.88;69.74
818;BME280;391;51.052;6.954;2023-05-25T07:19:49;101962.63;;;14.93;69.38
818;BME280;391;51.052;6.954;2023-05-25T07:21:53;101944.06;;;14.87;69.17
818;BME280;391;51.052;6.954;2023-05-25T07:23:56;101958.38;;;14.96;69.14
818;BME280;391;51.052;6.954;2023-05-25T07:26:00;101953.81;;;14.91;68.79
818;BME280;391;51.052;6.954;2023-05-25T07:28:08;101963.75;;;15.01;68.55
818;BME280;391;51.052;6.954;2023-05-25T07:30:12;101956.13;;;15.08;68.54
818;BME280;391;51.052;6.954;2023-05-25T07:32:16;101966.75;;;15.13;68.53
818;BME280;391;51.052;6.954;2023-05-25T07:34:21;101965.00;;;15.13;68.29
818;BME280;391;51.052;6.954;2023-05-25T07:36:27;101962.56;;;15.19;68.23
818;BME280;391;51.052;6.954;2023-05-25T07:38:30;101950.31;;;15.20;67.92
818;BME280;391;51.052;6.954;2023-05-25T07:40:34;101955.66;;;15.23;67.77
818;BME280;391;51.052;6.954;2023-05-25T07:42:41;101961.88;;;15.25;67.58
818;BME280;391;51.052;6.954;2023-05-25T07:44:46;101951.31;;;15.23;67.12
818;BME280;391;51.052;6.954;2023-05-25T07:46:50;101948.72;;;15.25;67.12
818;BME280;391;51.052;6.954;2023-05-25T07:48:54;101944.44;;;15.28;66.96
818;BME280;391;51.052;6.954;2023-05-25T07:50:59;101954.72;;;15.49;66.90
818;BME280;391;51.052;6.954;2023-05-25T07:53:02;101958.72;;;15.66;66.30
818;BME280;391;51.052;6.954;2023-05-25T07:55:07;101952.44;;;15.61;65.65
818;BME280;391;51.052;6.954;2023-05-25T07:57:11;101956.75;;;15.59;65.34
818;BME280;391;51.052;6.954;2023-05-25T07:59:14;101957.00;;;15.68;65.52
818;BME280;391;51.052;6.954;2023-05-25T08:01:19;101957.16;;;15.73;64.98
818;BME280;391;51.052;6.954;2023-05-25T08:03:26;101972.22;;;15.80;64.64
818;BME280;391;51.052;6.954;2023-05-25T08:05:51;101967.09;;;15.84;64.28
818;BME280;391;51.052;6.954;2023-05-25T08:07:54;101964.63;;;15.91;63.90
818;BME280;391;51.052;6.954;2023-05-25T08:09:58;101970.13;;;15.98;63.98
818;BME280;391;51.052;6.954;2023-05-25T08:12:02;101967.66;;;16.06;64.03
818;BME280;391;51.052;6.954;2023-05-25T08:14:25;101961.78;;;16.16;63.96
818;BME280;391;51.052;6.954;2023-05-25T08:16:30;101957.63;;;16.24;63.66
818;BME280;391;51.052;6.954;2023-05-25T08:18:33;101949.97;;;16.33;63.61
818;BME280;391;51.052;6.954;2023-05-25T08:20:37;101965.22;;;16.46;62.93
818;BME280;391;51.052;6.954;2023-05-25T08:22:41;101973.28;;;16.54;61.83
818;BME280;391;51.052;6.954;2023-05-25T08:24:44;101962.72;;;16.52;60.59
818;BME280;391;51.052;6.954;2023-05-25T08:26:48;101971.78;;;16.63;60.31
818;BME280;391;51.052;6.954;2023-05-25T08:28:56;101964.78;;;16.64;60.02
818;BME280;391;51.052;6.954;2023-05-25T08:30:59;101967.34;;;16.61;59.98
818;BME280;391;51.052;6.954;2023-05-25T08:33:04;101966.56;;;16.65;59.93
818;BME280;391;51.052;6.954;2023-05-25T08:35:09;101968.53;;;16.73;59.90
818;BME280;391;51.052;6.954;2023-05-25T08:37:15;101972.94;;;16.74;60.10
818;BME280;391;51.052;6.954;2023-05-25T08:39:18;101977.47;;;16.80;59.87
818;BME280;391;51.052;6.954;2023-05-25T08:41:22;101975.59;;;16.76;59.00
818;BME280;391;51.052;6.954;2023-05-25T08:43:25;101975.66;;;16.77;57.91
818;BME280;391;51.052;6.954;2023-05-25T08:45:29;101983.56;;;16.77;57.95
818;BME280;391;51.052;6.954;2023-05-25T08:47:40;101971.16;;;16.73;58.06
818;BME280;391;51.052;6.954;2023-05-25T08:49:47;101976.47;;;16.75;57.85
818;BME280;391;51.052;6.954;2023-05-25T08:51:53;101979.00;;;16.70;57.63
818;BME280;391;51.052;6.954;2023-05-25T08:53:59;101972.91;;;16.73;57.52
818;BME280;391;51.052;6.954;2023-05-25T08:56:09;101924.56;;;16.35;57.46
818;BME280;391;51.052;6.954;2023-05-25T08:58:18;101975.38;;;16.65;57.50
818;BME280;391;51.052;6.954;2023-05-25T09:00:26;101974.41;;;16.62;58.03
818;BME280;391;51.052;6.954;2023-05-25T09:02:33;101975.50;;;16.71;58.14
818;BME280;391;51.052;6.954;2023-05-25T09:04:38;101905.28;;;16.36;58.24
818;BME280;391;51.052;6.954;2023-05-25T09:06:43;101973.91;;;16.78;58.44
818;BME280;391;51.052;6.954;2023-05-25T09:09:03;101966.00;;;16.78;57.84
818;BME280;391;51.052;6.954;2023-05-25T09:11:07;101967.88;;;16.83;57.94
818;BME280;391;51.052;6.954;2023-05-25T09:13:11;101972.72;;;17.03;58.05
818;BME280;391;51.052;6.954;2023-05-25T09:15:23;101971.31;;;17.18;57.97
818;BME280;391;51.052;6.954;2023-05-25T09:17:27;101969.63;;;17.22;57.77
818;BME280;391;51.052;6.954;2023-05-25T09:19:30;101964.66;;;17.37;57.54
818;BME280;391;51.052;6.954;2023-05-25T09:21:34;101963.09;;;17.45;57.18
818;BME280;391;51.052;6.954;2023-05-25T09:23:39;101972.75;;;17.46;56.92
818;BME280;391;51.052;6.954;2023-05-25T09:25:43;101969.63;;;17.62;57.02
818;BME280;391;51.052;6.954;2023-05-25T09:27:47;101966.19;;;17.68;56.40
818;BME280;391;51.052;6.954;2023-05-25T09:29:51;101973.50;;;17.81;56.02
818;BME280;391;51.052;6.954;2023-05-25T09:31:55;101963.66;;;17.71;56.28
818;BME280;391;51.052;6.954;2023-05-25T09:33:59;101977.75;;;17.73;56.78
818;BME280;391;51.052;6.954;2023-05-25T09:36:02;101971.81;;;17.83;56.79
818;BME280;391;51.052;6.954;2023-05-25T09:38:06;101979.22;;;18.04;57.04
818;BME280;391;51.052;6.954;2023-05-25T09:40:11;101973.22;;;18.12;56.23
818;BME280;391;51.052;6.954;2023-05-25T09:42:17;101982.13;;;18.19;55.86
818;BME280;391;51.052;6.954;2023-05-25T09:44:21;101975.34;;;18.33;55.63
818;BME280;391;51.052;6.954;2023-05-25T09:46:25;101965.38;;;18.17;55.31
818;BME280;391;51.052;6.954;2023-05-25T09:48:29;101978.63;;;18.20;55.86
818;BME280;391;51.052;6.954;2023-05-25T09:50:32;101975.81;;;18.09;55.85
818;BME280;391;51.052;6.954;2023-05-25T09:52:38;101979.91;;;17.93;55.49
818;BME280;391;51.052;6.954;2023-05-25T09:54:43;101982.19;;;17.75;56.11
818;BME280;391;51.052;6.954;2023-05-25T09:56:48;101975.16;;;17.76;56.37
818;BME280;391;51.052;6.954;2023-05-25T09:58:51;101984.94;;;17.80;56.27
818;BME280;391;51.052;6.954;2023-05-25T10:00:55;101975.50;;;17.94;56.24
818;BME280;391;51.052;6.954;2023-05-25T10:02:59;101977.13;;;17.86;56.38
818;BME280;391;51.052;6.954;2023-05-25T10:05:03;101986.16;;;17.98;56.16
818;BME280;391;51.052;6.954;2023-05-25T10:07:07;101992.47;;;18.07;56.07
818;BME280;391;51.052;6.954;2023-05-25T10:09:12;101984.91;;;18.25;56.06
818;BME280;391;51.052;6.954;2023-05-25T10:11:17;101986.00;;;18.39;55.62
818;BME280;391;51.052;6.954;2023-05-25T10:13:26;101992.22;;;18.41;54.72
818;BME280;391;51.052;6.954;2023-05-25T10:15:32;101992.47;;;18.55;55.06
818;BME280;391;51.052;6.954;2023-05-25T10:17:39;101992.66;;;18.65;54.51
818;BME280;391;51.052;6.954;2023-05-25T10:19:49;102000.53;;;18.64;53.84
818;BME280;391;51.052;6.954;2023-05-25T10:22:01;101995.09;;;18.53;54.04
818;BME280;391;51.052;6.954;2023-05-25T10:24:14;101987.78;;;18.40;54.88
818;BME280;391;51.052;6.954;2023-05-25T10:26:25;101994.06;;;18.46;54.74
818;BME280;391;51.052;6.954;2023-05-25T10:28:35;101995.81;;;18.47;54.83
818;BME280;391;51.052;6.954;2023-05-25T10:30:40;102008.16;;;18.47;54.65
818;BME280;391;51.052;6.954;2023-05-25T10:32:45;101998.50;;;18.49;54.06
818;BME280;391;51.052;6.954;2023-05-25T10:34:51;101988.22;;;18.63;53.52
818;BME280;391;51.052;6.954;2023-05-25T10:36:55;101994.53;;;18.72;52.63
818;BME280;391;51.052;6.954;2023-05-25T10:39:00;101993.84;;;18.87;52.75
818;BME280;391;51.052;6.954;2023-05-25T10:41:04;101993.13;;;18.98;52.21
818;BME280;391;51.052;6.954;2023-05-25T10:43:08;101993.97;;;18.94;52.45
818;BME280;391;51.052;6.954;2023-05-25T10:45:13;101993.22;;;19.03;52.38
818;BME280;391;51.052;6.954;2023-05-25T10:47:18;102003.53;;;18.85;51.71
818;BME280;391;51.052;6.954;2023-05-25T10:49:30;102001.91;;;18.94;52.12
818;BME280;391;51.052;6.954;2023-05-25T10:51:38;102003.19;;;19.22;51.81
818;BME280;391;51.052;6.954;2023-05-25T10:53:45;101996.19;;;19.26;51.09
818;BME280;391;51.052;6.954;2023-05-25T10:56:00;102003.53;;;19.45;50.83
818;BME280;391;51.052;6.954;2023-05-25T10:58:07;101997.25;;;19.38;50.37
818;BME280;391;51.052;6.954;2023-05-25T11:00:14;101997.97;;;19.28;50.69
818;BME280;391;51.052;6.954;2023-05-25T11:02:20;102004.00;;;19.17;50.44
818;BME280;391;51.052;6.954;2023-05-25T11:04:25;101997.00;;;19.22;50.43
818;BME280;391;51.052;6.954;2023-05-25T11:07:04;102004.91;;;19.17;51.17
818;BME280;391;51.052;6.954;2023-05-25T11:09:22;101998.41;;;18.97;51.43
818;BME280;391;51.052;6.954;2023-05-25T11:11:59;102007.28;;;19.02;51.49
818;BME280;391;51.052;6.954;2023-05-25T11:14:04;101998.84;;;19.26;50.99
818;BME280;391;51.052;6.954;2023-05-25T11:16:30;101997.41;;;18.87;50.55
818;BME280;391;51.052;6.954;2023-05-25T11:18:39;102006.00;;;18.73;51.23
818;BME280;391;51.052;6.954;2023-05-25T11:20:44;102006.03;;;18.76;51.43
818;BME280;391;51.052;6.954;2023-05-25T11:22:50;102015.63;;;18.71;51.63
818;BME280;391;51.052;6.954;2023-05-25T11:24:56;102012.41;;;18.90;51.22
818;BME280;391;51.052;6.954;2023-05-25T11:27:00;102003.22;;;19.24;49.99
818;BME280;391;51.052;6.954;2023-05-25T11:29:11;101995.41;;;19.34;49.89
818;BME280;391;51.052;6.954;2023-05-25T11:31:15;101993.13;;;19.59;50.08
818;BME280;391;51.052;6.954;2023-05-25T11:33:22;102011.84;;;19.75;48.93